Time;durP1;ratioP1;P1;durP2;ratioP2;P2;SDS_P1;SDS_P2;PMS_P1;PMS_P2;Temp;Humidity;BMP_temperature;BMP_pressure;BME280_temperature;BME280_humidity;BME280_pressure;Samples;Min_cycle;Max_cycle;Signal;HPM_P1;HPM_P2
2022/09/01 00:00:58;;;;;;;2.00;0.75;;;;;;;22.05;42.23;101981.84;5076438;27;98285;-67
2022/09/01 00:03:26;;;;;;;1.30;0.60;;;;;;;22.08;42.10;101978.94;5077624;27;96816;-67
2022/09/01 00:05:56;;;;;;;1.67;0.93;;;;;;;21.98;42.29;101982.31;5071256;27;98136;-66
2022/09/01 00:08:24;;;;;;;1.73;0.60;;;;;;;21.98;42.07;101979.63;5073866;27;101360;-67
2022/09/01 00:10:50;;;;;;;1.33;0.68;;;;;;;21.91;42.39;101980.94;5070872;27;98638;-66
2022/09/01 00:13:17;;;;;;;4.90;0.85;;;;;;;22.10;41.78;101979.69;5074953;27;97064;-66
2022/09/01 00:15:44;;;;;;;1.80;0.88;;;;;;;21.97;42.22;101981.44;5075185;27;98169;-66
2022/09/01 00:18:12;;;;;;;0.63;0.63;;;;;;;21.85;42.15;101972.31;5074506;27;99053;-67
2022/09/01 00:20:39;;;;;;;1.08;0.57;;;;;;;21.93;41.93;101987.94;5073267;27;96874;-67
2022/09/01 00:23:05;;;;;;;1.63;0.68;;;;;;;21.92;41.98;101979.97;5072092;27;96854;-66
2022/09/01 00:25:31;;;;;;;0.70;0.57;;;;;;;21.82;42.19;101985.06;5072030;27;98909;-67
2022/09/01 00:28:03;;;;;;;2.05;0.60;;;;;;;21.84;42.45;101988.53;5073535;27;98967;-66
2022/09/01 00:30:30;;;;;;;0.98;0.52;;;;;;;21.87;42.13;101980.25;5073598;27;96712;-67
2022/09/01 00:32:56;;;;;;;1.02;0.70;;;;;;;21.86;42.20;101978.50;5073774;27;97044;-66
2022/09/01 00:35:26;;;;;;;4.55;0.77;;;;;;;21.79;42.38;101986.13;5074516;27;99069;-65
2022/09/01 00:37:55;;;;;;;0.75;0.50;;;;;;;21.80;42.43;101984.28;5073264;27;99169;-66
2022/09/01 00:40:21;;;;;;;0.77;0.43;;;;;;;21.84;42.02;101970.56;5075631;27;97383;-67
2022/09/01 00:42:48;;;;;;;0.90;0.50;;;;;;;21.80;42.00;101976.22;5072605;27;96809;-66
2022/09/01 00:45:19;;;;;;;1.70;0.63;;;;;;;21.86;41.95;101974.00;5068999;27;97696;-66
2022/09/01 00:47:46;;;;;;;1.67;0.60;;;;;;;21.65;42.50;101970.00;5073452;27;97553;-66
2022/09/01 00:50:14;;;;;;;1.80;0.50;;;;;;;21.78;42.28;101976.34;5070542;27;97745;-66
2022/09/01 00:52:45;;;;;;;2.45;0.73;;;;;;;21.54;42.28;101980.53;5074141;27;97305;-66
2022/09/01 00:55:16;;;;;;;2.00;0.40;;;;;;;21.59;42.16;101975.75;5072994;27;98859;-66
2022/09/01 00:57:43;;;;;;;2.47;0.82;;;;;;;21.84;42.06;101978.63;5067554;27;99038;-66
2022/09/01 01:00:14;;;;;;;3.55;0.52;;;;;;;21.83;42.11;101970.66;5071966;27;97015;-67
2022/09/01 01:02:43;;;;;;;3.70;0.57;;;;;;;21.85;41.89;101968.75;5074216;27;96819;-67
2022/09/01 01:05:11;;;;;;;1.85;0.50;;;;;;;21.82;41.77;101972.47;5069745;27;98901;-66
2022/09/01 01:07:43;;;;;;;2.45;0.98;;;;;;;21.88;41.91;101968.53;5070488;27;98500;-68
2022/09/01 01:10:16;;;;;;;2.45;0.88;;;;;;;21.72;42.02;101974.03;5068213;27;97506;-68
2022/09/01 01:12:44;;;;;;;2.33;0.98;;;;;;;21.84;42.16;101978.63;5067133;27;97715;-68
2022/09/01 01:15:11;;;;;;;1.75;0.77;;;;;;;21.80;41.94;101973.53;5071414;27;98825;-67
2022/09/01 01:17:39;;;;;;;1.80;0.65;;;;;;;21.71;42.09;101971.44;5073697;27;98300;-66
2022/09/01 01:23:04;;;;;;;0.50;0.43;;;;;;;21.78;42.16;101964.72;5066672;27;96808;-66
2022/09/01 01:25:36;;;;;;;1.23;0.50;;;;;;;21.65;42.58;101964.63;5070542;27;99324;-66
2022/09/01 01:28:13;;;;;;;0.60;0.40;;;;;;;21.46;42.71;101969.41;5070073;27;101146;-67
2022/09/01 01:30:42;;;;;;;1.17;0.52;;;;;;;21.60;42.69;101974.78;5070445;27;96855;-66
2022/09/01 01:33:09;;;;;;;1.05;0.47;;;;;;;21.59;42.93;101972.22;5073119;27;96870;-66
2022/09/01 01:35:38;;;;;;;1.05;0.60;;;;;;;21.70;42.61;101978.63;5071422;27;99260;-66
2022/09/01 01:38:07;;;;;;;1.38;0.65;;;;;;;21.15;43.63;101969.50;5070951;27;98059;-66
2022/09/01 01:40:35;;;;;;;0.68;0.43;;;;;;;21.40;43.39;101970.63;5073729;27;96660;-66
2022/09/01 01:43:02;;;;;;;1.25;0.50;;;;;;;21.54;42.97;101967.09;5074558;27;96950;-65
2022/09/01 01:45:29;;;;;;;0.77;0.50;;;;;;;21.54;42.97;101974.28;5071640;27;98898;-66
2022/09/01 01:47:56;;;;;;;2.75;0.50;;;;;;;21.43;43.20;101974.97;5068306;27;98832;-66
2022/09/01 01:50:28;;;;;;;2.10;0.55;;;;;;;21.44;43.13;101968.63;5073718;27;96972;-66
2022/09/01 01:52:58;;;;;;;2.05;0.73;;;;;;;21.41;43.33;101964.28;5071217;27;97163;-66
2022/09/01 01:55:26;;;;;;;0.68;0.60;;;;;;;21.16;43.80;101969.44;5073929;27;99967;-66
2022/09/01 01:57:56;;;;;;;1.85;0.68;;;;;;;21.28;43.66;101963.31;5070069;27;98964;-66
2022/09/01 02:00:25;;;;;;;0.90;0.65;;;;;;;21.26;43.64;101957.19;5065495;27;97036;-66
2022/09/01 02:02:53;;;;;;;2.17;0.70;;;;;;;21.34;43.55;101967.44;5073107;27;96873;-66
2022/09/01 02:05:24;;;;;;;1.88;0.57;;;;;;;21.27;43.89;101972.34;5066217;27;98985;-66
2022/09/01 02:07:55;;;;;;;3.20;0.60;;;;;;;21.18;44.26;101961.28;5071463;27;99587;-67
2022/09/01 02:10:23;;;;;;;0.80;0.45;;;;;;;21.18;44.26;101958.59;5073125;27;96844;-66
2022/09/01 02:12:50;;;;;;;3.42;0.93;;;;;;;21.15;44.31;101966.81;5073567;27;96850;-66
2022/09/01 02:15:18;;;;;;;0.98;0.70;;;;;;;21.23;44.28;101967.25;5071682;27;99095;-66
2022/09/01 02:17:47;;;;;;;3.15;0.80;;;;;;;21.01;44.79;101965.81;5072141;27;97812;-66
2022/09/01 02:20:15;;;;;;;1.10;0.60;;;;;;;20.93;45.01;101975.31;5071345;27;96906;-68
2022/09/01 02:22:43;;;;;;;1.48;0.70;;;;;;;20.93;45.25;101972.63;5071308;27;96917;-69
2022/09/01 02:25:10;;;;;;;2.42;0.70;;;;;;;20.97;45.24;101974.16;5073878;27;99169;-66
2022/09/01 02:27:38;;;;;;;2.75;0.60;;;;;;;20.87;45.35;101968.47;5074355;27;99004;-66
2022/09/01 02:30:09;;;;;;;2.40;0.82;;;;;;;20.89;45.26;101971.94;5069417;27;97192;-66
2022/09/01 02:32:37;;;;;;;0.95;0.50;;;;;;;20.78;45.66;101973.53;5073291;27;96831;-66
2022/09/01 02:35:08;;;;;;;1.88;0.50;;;;;;;20.72;46.03;101965.81;5065343;27;98924;-67
2022/09/01 02:37:38;;;;;;;1.42;0.80;;;;;;;20.72;46.20;101961.31;5071676;27;99238;-72
2022/09/01 02:40:06;;;;;;;3.10;0.70;;;;;;;20.82;45.66;101962.50;5072040;27;98144;-69
2022/09/01 02:42:33;;;;;;;1.15;0.50;;;;;;;20.73;45.93;101965.75;5067807;27;96843;-66
2022/09/01 02:44:59;;;;;;;2.45;0.60;;;;;;;20.74;46.22;101961.25;5070316;27;99074;-66
2022/09/01 02:47:27;;;;;;;2.05;0.50;;;;;;;20.63;46.41;101961.84;5072076;27;98864;-66
2022/09/01 02:49:57;;;;;;;2.00;0.70;;;;;;;20.55;46.82;101956.91;5070721;27;96745;-66
2022/09/01 02:52:23;;;;;;;1.23;0.50;;;;;;;20.68;46.68;101955.25;5072508;27;97013;-66
2022/09/01 02:54:49;;;;;;;2.47;0.70;;;;;;;20.69;46.46;101965.03;5072086;27;99136;-66
2022/09/01 02:57:17;;;;;;;2.45;0.70;;;;;;;20.67;46.53;101952.69;5063356;27;98760;-67
2022/09/01 02:59:44;;;;;;;2.55;0.82;;;;;;;20.50;47.14;101950.97;5071016;27;96756;-66
2022/09/01 03:02:11;;;;;;;1.48;0.57;;;;;;;20.36;47.13;101960.75;5070269;27;98567;-66
2022/09/01 03:04:37;;;;;;;1.73;0.60;;;;;;;20.13;47.95;101964.72;5071912;27;98999;-67
2022/09/01 03:07:07;;;;;;;2.47;0.50;;;;;;;20.19;48.08;101959.00;5069558;27;99096;-65
2022/09/01 03:09:40;;;;;;;1.10;0.63;;;;;;;20.26;47.84;101955.91;5072827;27;96802;-66
2022/09/01 03:12:07;;;;;;;2.20;0.60;;;;;;;20.26;47.97;101961.25;5070560;27;96857;-66
2022/09/01 03:14:36;;;;;;;2.97;1.10;;;;;;;20.21;48.16;101959.78;5070559;27;100861;-66
2022/09/01 03:17:02;;;;;;;0.88;0.55;;;;;;;20.12;48.19;101953.13;5071397;27;98262;-66
2022/09/01 03:19:31;;;;;;;1.17;0.88;;;;;;;20.17;48.33;101955.53;5077484;27;96897;-66
2022/09/01 03:21:59;;;;;;;1.63;0.95;;;;;;;20.29;48.33;101954.84;5070106;27;97775;-66
2022/09/01 03:24:26;;;;;;;1.52;0.80;;;;;;;20.24;48.18;101947.06;5066566;27;99015;-66
2022/09/01 03:26:55;;;;;;;2.85;0.73;;;;;;;20.15;48.55;101950.25;5069158;27;98919;-66
2022/09/01 03:29:25;;;;;;;1.42;0.70;;;;;;;20.15;48.43;101946.72;5070811;27;96768;-65
2022/09/01 03:31:51;;;;;;;1.75;0.80;;;;;;;20.12;48.74;101952.25;5070800;27;96817;-66
2022/09/01 03:34:22;;;;;;;2.25;0.90;;;;;;;19.91;49.06;101954.31;5070257;27;98579;-67
2022/09/01 03:36:53;;;;;;;1.38;0.90;;;;;;;20.12;48.85;101949.56;5071262;27;98964;-67
2022/09/01 03:39:21;;;;;;;1.25;0.70;;;;;;;19.98;49.13;101954.84;5069801;27;97738;-67
2022/09/01 03:41:49;;;;;;;2.40;0.82;;;;;;;19.68;50.03;101954.72;5071538;27;96832;-68
2022/09/01 03:44:15;;;;;;;3.10;0.63;;;;;;;20.04;49.08;101950.00;5071297;27;98611;-68
2022/09/01 03:46:43;;;;;;;2.20;1.05;;;;;;;19.98;49.31;101953.03;5070339;27;97955;-67
2022/09/01 03:49:14;;;;;;;2.42;1.10;;;;;;;19.84;49.67;101955.59;5071120;27;96823;-67
2022/09/01 03:51:42;;;;;;;3.05;1.80;;;;;;;19.75;49.61;101962.34;5072298;27;96797;-67
2022/09/01 03:54:09;;;;;;;2.10;1.00;;;;;;;19.82;49.38;101952.16;5075093;27;98941;-67
2022/09/01 03:56:39;;;;;;;1.10;0.85;;;;;;;19.83;49.53;101953.84;5070115;27;99156;-67
2022/09/01 03:59:07;;;;;;;1.08;0.85;;;;;;;19.69;49.74;101946.56;5070146;27;96904;-68
2022/09/01 04:01:36;;;;;;;2.35;0.90;;;;;;;19.68;49.79;101952.91;5072277;27;96877;-67
2022/09/01 04:04:03;;;;;;;2.58;0.70;;;;;;;19.61;50.05;101950.63;5069411;27;99391;-67
2022/09/01 04:06:30;;;;;;;1.85;1.10;;;;;;;19.64;50.11;101953.13;5068634;27;101077;-67
2022/09/01 04:09:01;;;;;;;2.72;0.82;;;;;;;19.52;50.38;101952.00;5071178;27;97361;-68
2022/09/01 04:11:28;;;;;;;4.05;1.20;;;;;;;19.59;50.31;101955.22;5072522;27;96822;-67
2022/09/01 04:13:57;;;;;;;1.80;0.80;;;;;;;19.26;51.02;101942.63;5069526;27;98907;-67
2022/09/01 04:19:19;;;;;;;1.20;0.88;;;;;;;19.44;50.72;101948.81;5065276;27;98809;-68
2022/09/01 04:21:46;;;;;;;6.10;4.60;;;;;;;19.41;50.69;101949.88;5064370;27;97004;-67
2022/09/01 04:24:14;;;;;;;2.50;1.00;;;;;;;19.57;50.15;101949.91;5056051;27;98885;-67
2022/09/01 04:26:40;;;;;;;3.22;0.70;;;;;;;19.56;50.14;101944.66;5068193;27;98771;-68
2022/09/01 04:29:10;;;;;;;3.03;1.08;;;;;;;19.52;50.21;101946.63;5067779;27;97003;-67
2022/09/01 04:31:41;;;;;;;2.97;1.27;;;;;;;19.62;50.15;101952.38;5069056;27;98644;-67
2022/09/01 04:34:12;;;;;;;3.13;0.90;;;;;;;19.40;50.62;101950.81;5063886;27;101862;-66
2022/09/01 04:36:40;;;;;;;2.00;1.20;;;;;;;19.40;50.58;101953.50;5067428;27;98898;-67
2022/09/01 04:39:11;;;;;;;3.55;1.00;;;;;;;19.50;50.34;101954.75;5064946;27;97039;-67
2022/09/01 04:41:39;;;;;;;3.70;1.08;;;;;;;19.43;50.76;101957.81;5074409;27;96786;-68
2022/09/01 04:44:07;;;;;;;3.33;0.95;;;;;;;19.53;50.70;101960.91;5070447;27;98454;-67
2022/09/01 04:46:35;;;;;;;3.90;1.30;;;;;;;19.56;50.22;101960.75;5068728;27;98681;-67
2022/09/01 04:49:09;;;;;;;1.88;1.40;;;;;;;19.55;50.13;101956.34;5070515;27;96911;-67
2022/09/01 04:51:38;;;;;;;3.08;1.38;;;;;;;19.53;49.99;101958.22;5072503;27;98448;-67
2022/09/01 04:54:10;;;;;;;2.22;1.20;;;;;;;19.63;49.97;101960.31;5065908;27;99276;-67
2022/09/01 04:56:38;;;;;;;1.40;1.10;;;;;;;19.61;49.96;101961.38;5066729;27;101786;-68
2022/09/01 04:59:06;;;;;;;2.80;1.02;;;;;;;19.58;49.87;101956.16;5069140;27;96857;-67
2022/09/01 05:01:41;;;;;;;3.75;1.33;;;;;;;19.46;50.15;101960.38;5071625;27;96937;-67
2022/09/01 05:04:15;;;;;;;3.22;1.20;;;;;;;19.75;49.55;101964.16;5067332;27;98943;-67
2022/09/01 05:06:43;;;;;;;1.88;1.10;;;;;;;19.67;49.45;101963.72;5066729;27;98434;-67
2022/09/01 05:09:11;;;;;;;2.65;1.00;;;;;;;19.75;49.54;101961.50;5064416;27;98609;-67
2022/09/01 05:11:41;;;;;;;3.53;1.10;;;;;;;19.81;49.07;101963.84;5073041;27;96928;-67
2022/09/01 05:14:07;;;;;;;4.85;1.13;;;;;;;19.58;49.73;101959.69;5070259;27;99325;-66
2022/09/01 05:16:34;;;;;;;4.55;1.00;;;;;;;19.78;49.43;101956.81;5070175;27;99182;-69
2022/09/01 05:19:01;;;;;;;4.65;1.30;;;;;;;19.81;49.75;101962.00;5070428;27;96940;-68
2022/09/01 05:21:29;;;;;;;4.25;1.45;;;;;;;19.89;49.23;101959.75;5070809;27;96934;-68
2022/09/01 05:23:59;;;;;;;3.08;1.20;;;;;;;20.01;48.69;101955.56;5071819;27;98934;-68
2022/09/01 05:26:28;;;;;;;3.92;1.10;;;;;;;20.04;48.83;101955.34;5068432;27;98545;-68
2022/09/01 05:28:56;;;;;;;3.78;1.27;;;;;;;19.82;49.00;101960.22;5073699;27;96762;-69
2022/09/01 05:31:24;;;;;;;2.60;1.08;;;;;;;20.05;48.87;101951.72;5067289;27;96789;-67
2022/09/01 05:33:53;;;;;;;5.15;1.27;;;;;;;20.13;48.39;101962.03;5066643;27;99229;-67
2022/09/01 05:36:21;;;;;;;6.55;1.20;;;;;;;20.37;48.17;101957.13;5064657;27;100756;-67
2022/09/01 05:38:51;;;;;;;4.50;1.48;;;;;;;20.14;48.22;101961.97;5062095;27;97479;-68
2022/09/01 05:41:23;;;;;;;5.63;1.30;;;;;;;20.30;48.00;101962.81;5066222;27;96966;-68
2022/09/01 05:43:51;;;;;;;3.75;1.50;;;;;;;20.49;47.55;101962.66;5065744;27;98927;-68
2022/09/01 05:46:22;;;;;;;7.53;1.45;;;;;;;20.42;47.60;101965.78;5067244;27;97753;-67
2022/09/01 05:48:50;;;;;;;3.88;1.55;;;;;;;20.63;47.13;101961.84;5069055;27;96881;-66
2022/09/01 05:51:21;;;;;;;5.40;1.50;;;;;;;20.77;46.90;101958.34;5069151;27;97636;-67
2022/09/01 05:53:51;;;;;;;7.30;1.60;;;;;;;20.69;47.11;101966.88;5061071;27;98806;-69
2022/09/01 05:56:19;;;;;;;4.35;1.30;;;;;;;20.79;47.01;101965.38;5062130;27;98669;-69
2022/09/01 05:58:47;;;;;;;6.10;1.92;;;;;;;20.92;46.67;101968.22;5065365;27;97280;-68
2022/09/01 06:01:20;;;;;;;7.10;1.63;;;;;;;21.00;46.17;101964.09;5066838;27;97588;-67
2022/09/01 06:03:54;;;;;;;3.88;1.75;;;;;;;21.07;46.26;101965.44;5071332;27;98928;-68
2022/09/01 06:06:21;;;;;;;8.77;1.65;;;;;;;21.19;46.18;101971.97;5067221;27;99049;-68
2022/09/01 06:08:49;;;;;;;3.55;1.50;;;;;;;21.16;46.14;101966.75;5066341;27;99120;-68
2022/09/01 06:11:16;;;;;;;9.13;1.48;;;;;;;21.25;45.82;101962.66;5067422;27;98820;-67
2022/09/01 06:13:43;;;;;;;3.97;1.20;;;;;;;21.12;45.77;101964.31;5066206;27;98768;-68
2022/09/01 06:16:13;;;;;;;6.43;1.38;;;;;;;21.28;45.34;101973.22;5066607;27;99495;-68
2022/09/01 06:18:42;;;;;;;4.40;1.40;;;;;;;21.38;45.50;101975.25;5069709;27;96847;-67
2022/09/01 06:21:13;;;;;;;7.93;1.50;;;;;;;21.49;45.17;101969.22;5067722;27;96943;-68
2022/09/01 06:23:40;;;;;;;3.30;1.00;;;;;;;21.57;44.74;101972.28;5070478;27;99386;-68
2022/09/01 06:26:08;;;;;;;4.28;1.30;;;;;;;21.70;44.56;101967.00;5067106;27;98842;-67
2022/09/01 06:28:40;;;;;;;5.50;1.20;;;;;;;21.58;44.80;101968.66;5066718;27;98961;-67
2022/09/01 06:31:10;;;;;;;2.53;1.33;;;;;;;21.46;44.83;101972.09;5067278;27;97388;-67
2022/09/01 06:33:37;;;;;;;4.47;1.48;;;;;;;21.65;44.37;101977.19;5068118;27;98892;-68
2022/09/01 06:36:07;;;;;;;1.45;1.08;;;;;;;21.76;44.24;101975.56;5062696;27;98839;-67
2022/09/01 06:38:38;;;;;;;3.90;1.10;;;;;;;21.99;43.87;101979.50;5067958;27;98457;-68
2022/09/01 06:41:11;;;;;;;5.82;1.25;;;;;;;22.22;43.31;101983.41;5069449;27;98334;-67
2022/09/01 06:43:41;;;;;;;5.90;1.15;;;;;;;22.18;43.11;101979.22;5068982;27;99334;-67
2022/09/01 06:46:09;;;;;;;4.57;1.30;;;;;;;21.89;43.51;101981.03;5068660;27;98866;-67
2022/09/01 06:48:38;;;;;;;7.10;1.25;;;;;;;22.39;43.03;101982.31;5066266;27;97502;-67
2022/09/01 06:51:08;;;;;;;6.97;1.20;;;;;;;22.56;42.71;101982.94;5065067;27;97853;-68
2022/09/01 06:53:34;;;;;;;2.90;0.90;;;;;;;22.32;42.79;101984.53;5070957;27;98967;-67
2022/09/01 06:56:02;;;;;;;5.38;1.17;;;;;;;22.28;42.77;101983.03;5066703;27;98840;-68
2022/09/01 06:58:29;;;;;;;4.50;0.88;;;;;;;22.36;42.62;101987.91;5060663;27;96850;-67
2022/09/01 07:01:06;;;;;;;4.50;1.08;;;;;;;22.60;42.25;101979.06;5065140;27;96906;-66
2022/09/01 07:03:34;;;;;;;7.35;1.20;;;;;;;22.43;42.76;101978.47;5067703;27;99400;-67
2022/09/01 07:06:05;;;;;;;7.15;0.93;;;;;;;22.76;42.02;101983.47;5065606;27;98363;-67
2022/09/01 07:08:38;;;;;;;4.63;0.98;;;;;;;22.97;41.37;101982.03;5070526;27;97011;-67
2022/09/01 07:11:06;;;;;;;5.43;0.80;;;;;;;23.21;40.68;101985.75;5066836;27;96972;-67
2022/09/01 07:13:34;;;;;;;4.70;0.80;;;;;;;23.20;40.73;101983.16;5061818;27;99573;-68
2022/09/01 07:16:05;;;;;;;4.13;0.70;;;;;;;23.37;40.61;101986.38;5066434;27;99239;-68
2022/09/01 07:18:32;;;;;;;3.97;0.75;;;;;;;23.34;40.17;101988.44;5064120;27;96865;-67
2022/09/01 07:21:06;;;;;;;1.73;0.80;;;;;;;23.52;39.91;101991.72;5062608;27;97019;-68
2022/09/01 07:23:32;;;;;;;6.53;0.70;;;;;;;23.27;40.14;101990.72;5064222;27;99041;-68
2022/09/01 07:25:59;;;;;;;3.00;0.85;;;;;;;23.72;39.76;101996.59;5064929;27;99252;-68
2022/09/01 07:28:28;;;;;;;3.65;0.60;;;;;;;24.18;39.16;101988.72;5066923;27;96787;-68
2022/09/01 07:30:55;;;;;;;1.17;0.90;;;;;;;24.84;37.61;101988.28;5069564;27;96813;-67
2022/09/01 07:33:23;;;;;;;6.07;2.00;;;;;;;24.35;38.12;101990.25;5063788;27;99528;-68
2022/09/01 07:35:52;;;;;;;1.30;0.68;;;;;;;24.35;37.58;101990.25;5062799;27;101130;-68
2022/09/01 07:38:18;;;;;;;3.40;0.77;;;;;;;24.16;38.13;101987.97;5066705;27;98688;-70
2022/09/01 07:40:52;;;;;;;1.20;0.65;;;;;;;24.22;38.13;101996.53;5069005;27;96913;-68
2022/09/01 07:43:23;;;;;;;1.90;0.68;;;;;;;24.45;37.65;101994.84;5065345;27;99285;-68
2022/09/01 07:45:54;;;;;;;3.05;0.68;;;;;;;24.52;37.69;102000.66;5068933;27;98905;-68
2022/09/01 07:48:25;;;;;;;2.03;0.75;;;;;;;24.61;37.70;101992.72;5069389;27;98480;-69
2022/09/01 07:50:55;;;;;;;2.78;0.70;;;;;;;24.57;37.63;101990.34;5068348;27;97266;-66
2022/09/01 07:53:24;;;;;;;2.30;0.77;;;;;;;23.93;38.56;101988.78;5066016;27;99798;-68
2022/09/01 07:55:53;;;;;;;1.83;0.80;;;;;;;24.41;38.08;101989.78;5067430;27;99116;-68
2022/09/01 07:58:22;;;;;;;3.20;0.60;;;;;;;24.55;37.66;101995.00;5065480;27;97870;-68
2022/09/01 08:00:53;;;;;;;1.80;0.55;;;;;;;24.24;38.14;101988.31;5068423;27;96953;-68
2022/09/01 08:03:24;;;;;;;2.38;0.68;;;;;;;24.37;37.46;101999.94;5054397;27;99556;-67
2022/09/01 08:05:59;;;;;;;3.70;0.68;;;;;;;25.16;36.20;102001.22;5063812;27;99239;-67
2022/09/01 08:08:29;;;;;;;1.98;0.63;;;;;;;25.37;35.76;102003.13;5061594;27;98186;-67
2022/09/01 08:10:55;;;;;;;2.60;0.52;;;;;;;25.49;34.78;101995.03;5062665;27;97416;-67
2022/09/01 08:13:21;;;;;;;3.33;0.63;;;;;;;25.41;34.93;102001.88;5064062;27;99195;-68
2022/09/01 08:15:51;;;;;;;4.50;0.90;;;;;;;25.18;34.18;102007.38;5071106;27;98751;-67
2022/09/01 08:18:17;;;;;;;2.50;0.70;;;;;;;25.19;34.72;102007.25;5073251;27;96879;-67
2022/09/01 08:20:46;;;;;;;3.30;0.47;;;;;;;24.86;35.28;102005.25;5068687;27;96822;-67
2022/09/01 08:23:17;;;;;;;3.30;0.55;;;;;;;24.83;35.76;102000.06;5065930;27;99163;-67
2022/09/01 08:25:45;;;;;;;1.50;0.60;;;;;;;24.96;35.32;102002.75;5071361;27;98861;-67
2022/09/01 08:28:13;;;;;;;1.02;0.55;;;;;;;25.10;34.94;101994.44;5069280;27;97063;-67
2022/09/01 08:30:41;;;;;;;5.75;2.85;;;;;;;25.20;34.75;102000.88;5069067;27;97127;-67
2022/09/01 08:33:10;;;;;;;3.20;1.00;;;;;;;25.18;34.90;101996.56;5073794;27;100529;-68
2022/09/01 08:35:39;;;;;;;2.05;1.00;;;;;;;25.00;34.46;102005.13;5063928;27;96826;-69
2022/09/01 08:38:10;;;;;;;7.25;0.95;;;;;;;24.99;34.47;101995.28;5060081;27;96806;-68
2022/09/01 08:40:40;;;;;;;1.92;0.95;;;;;;;25.13;34.62;101994.22;5062310;27;97537;-68
2022/09/01 08:43:16;;;;;;;3.22;1.55;;;;;;;25.35;34.27;101996.09;5063104;27;101155;-68
2022/09/01 08:45:47;;;;;;;2.65;0.70;;;;;;;25.37;34.29;101997.72;5062928;27;98935;-68
2022/09/01 08:48:18;;;;;;;2.25;1.40;;;;;;;25.18;34.12;101997.41;5063489;27;97737;-68
2022/09/01 08:50:49;;;;;;;1.40;0.60;;;;;;;25.45;33.40;101980.88;5070023;27;98305;-68
2022/09/01 08:53:26;;;;;;;4.82;1.40;;;;;;;25.39;33.94;101990.34;5065117;27;101223;-68
2022/09/01 08:55:59;;;;;;;2.45;0.40;;;;;;;25.38;33.54;101993.16;5063724;27;98881;-69
2022/09/01 08:58:29;;;;;;;1.20;0.80;;;;;;;25.27;32.52;101990.44;5066098;27;96866;-68
2022/09/01 09:00:59;;;;;;;4.82;0.70;;;;;;;25.17;33.27;101994.81;5064358;27;97918;-67
2022/09/01 09:03:42;;;;;;;4.15;0.50;;;;;;;25.15;32.82;101991.38;5064434;27;99027;-68
2022/09/01 09:06:17;;;;;;;3.00;0.80;;;;;;;25.41;32.98;101998.31;5071609;27;99229;-68
2022/09/01 09:08:52;;;;;;;4.85;0.70;;;;;;;25.57;33.28;101988.06;5065889;27;96983;-68
2022/09/01 09:12:08;;;;;;;1.10;0.73;;;;;;;25.71;32.07;101986.97;5068214;27;97321;-68
2022/09/01 09:14:52;;;;;;;1.98;0.50;;;;;;;25.51;31.85;101988.50;5064794;27;99139;-67
2022/09/01 09:17:25;;;;;;;4.50;1.00;;;;;;;25.84;32.41;101981.44;5064861;27;99139;-67
2022/09/01 09:19:53;;;;;;;2.05;0.68;;;;;;;25.61;32.63;101994.06;5066292;27;97273;-68
2022/09/01 09:22:20;;;;;;;4.20;0.60;;;;;;;25.62;32.28;101985.84;5062642;27;97386;-68
2022/09/01 09:24:50;;;;;;;3.50;0.50;;;;;;;25.69;32.11;101986.22;5065767;27;99330;-67
2022/09/01 09:27:24;;;;;;;1.08;0.35;;;;;;;25.77;32.74;101987.34;5066111;27;99272;-67
2022/09/01 09:29:53;;;;;;;1.52;0.60;;;;;;;25.84;32.51;101989.56;5060485;27;96846;-67
2022/09/01 09:32:21;;;;;;;0.98;0.57;;;;;;;25.94;31.88;101974.28;5061781;27;97424;-68
2022/09/01 09:34:53;;;;;;;6.22;0.65;;;;;;;25.80;31.26;101976.25;5065550;27;99226;-68
2022/09/01 09:37:25;;;;;;;0.38;0.38;;;;;;;25.85;31.85;101970.50;5063602;27;98856;-68
2022/09/01 09:40:14;;;;;;;1.45;0.77;;;;;;;26.06;31.77;101975.97;5066497;27;97299;-69
2022/09/01 09:43:04;;;;;;;0.85;0.30;;;;;;;26.21;31.19;101972.03;5065334;27;96925;-69
2022/09/01 09:45:33;;;;;;;1.13;0.52;;;;;;;26.28;31.04;101967.88;5069551;27;99061;-68
2022/09/01 09:48:05;;;;;;;2.15;0.77;;;;;;;26.72;30.21;101975.00;5062938;27;99862;-68
2022/09/01 09:50:36;;;;;;;1.63;0.40;;;;;;;26.42;29.80;101970.31;5063773;27;96944;-68
2022/09/01 09:53:28;;;;;;;1.10;0.40;;;;;;;26.86;29.45;101968.41;5066845;27;96776;-68
2022/09/01 09:56:02;;;;;;;0.63;0.47;;;;;;;26.78;30.06;101968.22;5058125;27;100292;-67
2022/09/01 09:58:39;;;;;;;2.20;0.60;;;;;;;26.49;30.07;101968.81;5064442;27;97971;-68
2022/09/01 10:01:13;;;;;;;0.52;0.40;;;;;;;26.71;30.02;101975.16;5065697;27;96742;-67
2022/09/01 10:03:47;;;;;;;3.40;0.90;;;;;;;26.50;30.06;101973.25;5065580;27;97424;-72
2022/09/01 10:06:31;;;;;;;0.93;0.82;;;;;;;26.46;30.23;101963.63;5063008;27;99944;-68
2022/09/01 10:09:01;;;;;;;2.65;0.40;;;;;;;26.85;29.59;101970.25;5064348;27;98848;-67
2022/09/01 10:11:36;;;;;;;0.50;0.50;;;;;;;27.06;27.81;101970.31;5060318;27;97246;-68
2022/09/01 10:14:10;;;;;;;0.50;0.38;;;;;;;26.97;27.22;101971.13;5065724;27;96717;-68
2022/09/01 10:16:41;;;;;;;3.17;0.47;;;;;;;26.69;28.37;101959.00;5069007;27;98975;-67
2022/09/01 10:19:14;;;;;;;1.45;0.30;;;;;;;26.79;28.59;101964.50;5066985;27;98761;-67
2022/09/01 10:21:43;;;;;;;2.05;0.50;;;;;;;26.75;28.65;101963.91;5064718;27;97361;-68
2022/09/01 10:24:19;;;;;;;1.10;0.50;;;;;;;27.08;28.04;101964.75;5068821;27;96948;-68
2022/09/01 10:26:53;;;;;;;0.47;0.30;;;;;;;26.98;27.78;101969.28;5064844;27;99240;-68
2022/09/01 10:29:26;;;;;;;3.15;0.50;;;;;;;26.94;28.43;101963.22;5072866;27;99314;-67
2022/09/01 10:31:55;;;;;;;1.30;0.50;;;;;;;26.79;27.42;101961.78;5065449;27;97490;-70
2022/09/01 10:34:23;;;;;;;2.90;0.60;;;;;;;27.00;27.56;101954.56;5068590;27;96787;-67
2022/09/01 10:36:53;;;;;;;1.88;0.50;;;;;;;26.96;27.03;101955.84;5067237;27;98933;-68
2022/09/01 10:39:21;;;;;;;0.95;0.40;;;;;;;26.93;27.21;101945.22;5063576;27;100765;-67
2022/09/01 10:41:52;;;;;;;0.47;0.47;;;;;;;26.67;28.47;101957.41;5069572;27;98030;-67
2022/09/01 10:44:25;;;;;;;0.50;0.32;;;;;;;26.90;28.56;101951.81;5068637;27;96838;-68
2022/09/01 10:46:52;;;;;;;4.80;0.50;;;;;;;26.54;28.72;101952.16;5066831;27;97631;-69
2022/09/01 10:50:01;;;;;;;1.77;0.50;;;;;;;26.82;28.90;101956.13;5070571;27;98794;-67
2022/09/01 10:53:01;;;;;;;1.65;0.80;;;;;;;26.91;27.61;101952.66;5070054;27;96846;-68
2022/09/01 10:55:47;;;;;;;1.25;0.40;;;;;;;27.04;27.58;101956.03;5067152;27;97114;-68
2022/09/01 10:58:38;;;;;;;1.35;0.70;;;;;;;27.14;27.52;101946.09;5065447;27;98178;-67
2022/09/01 11:01:05;;;;;;;1.45;0.60;;;;;;;27.12;27.90;101947.22;5064592;27;98972;-67
2022/09/01 11:03:56;;;;;;;1.65;0.40;;;;;;;27.15;27.50;101949.69;5069386;27;96835;-68
2022/09/01 11:06:57;;;;;;;3.13;0.50;;;;;;;27.19;27.60;101945.69;5067871;27;96863;-68
2022/09/01 11:09:29;;;;;;;4.88;0.68;;;;;;;26.91;27.45;101945.34;5064185;27;99283;-69
2022/09/01 11:12:20;;;;;;;5.57;0.60;;;;;;;26.80;27.82;101948.09;5059584;27;99370;-68
2022/09/01 11:14:52;;;;;;;1.77;0.40;;;;;;;26.65;27.89;101949.38;5066649;27;96900;-68
2022/09/01 11:17:25;;;;;;;2.35;0.40;;;;;;;26.37;28.14;101945.44;5060138;27;97104;-68
2022/09/01 11:19:59;;;;;;;0.68;0.40;;;;;;;26.33;28.24;101938.53;5065894;27;97860;-68
2022/09/01 11:22:36;;;;;;;2.20;0.88;;;;;;;26.11;28.16;101944.00;5064526;27;99287;-67
2022/09/01 11:25:42;;;;;;;0.80;0.35;;;;;;;26.35;27.50;101933.00;5065057;27;97329;-68
2022/09/01 11:28:44;;;;;;;2.47;0.35;;;;;;;26.25;27.68;101932.91;5067279;27;97801;-67
2022/09/01 11:31:21;;;;;;;1.63;0.40;;;;;;;26.56;27.63;101940.19;5062869;27;98492;-67
2022/09/01 11:34:02;;;;;;;0.75;0.32;;;;;;;26.41;27.30;101941.47;5066679;27;99287;-69
2022/09/01 11:36:33;;;;;;;3.00;0.40;;;;;;;26.71;27.41;101950.75;5061492;27;97952;-68
2022/09/01 11:39:07;;;;;;;1.05;0.38;;;;;;;26.51;27.10;101941.59;5063134;27;97376;-68
2022/09/01 11:41:51;;;;;;;1.98;0.55;;;;;;;26.43;27.15;101944.06;5065046;27;98012;-68
2022/09/01 11:44:23;;;;;;;1.00;0.45;;;;;;;26.55;26.54;101941.19;5064048;27;98810;-68
2022/09/01 11:46:52;;;;;;;0.77;0.43;;;;;;;27.03;26.29;101938.03;5066381;27;97274;-68